createdAt,value
2023-01-12T00:00:34.079Z,10.38
2023-01-12T00:02:36.084Z,11.15
2023-01-12T00:04:38.115Z,10.88
2023-01-12T00:06:40.343Z,12.02
2023-01-12T00:08:42.173Z,10.60
2023-01-12T00:10:43.693Z,12.50
2023-01-12T00:12:45.223Z,11.57
2023-01-12T00:14:46.766Z,10.75
2023-01-12T00:16:48.266Z,10.15
2023-01-12T00:18:50.563Z,10.98
2023-01-12T00:20:52.123Z,10.50
2023-01-12T00:22:54.208Z,11.07
2023-01-12T00:24:55.967Z,11.38
2023-01-12T00:26:59.581Z,12.70
2023-01-12T00:29:01.307Z,11.55
2023-01-12T00:31:08.154Z,10.07
2023-01-12T00:33:09.776Z,11.88
2023-01-12T00:35:11.305Z,12.95
2023-01-12T00:37:13.518Z,11.93
2023-01-12T00:39:15.957Z,11.30
2023-01-12T00:41:37.778Z,10.10
2023-01-12T00:43:57.914Z,11.13
2023-01-12T00:45:59.489Z,12.32
2023-01-12T00:48:01.003Z,10.95
2023-01-12T00:50:02.602Z,13.70
2023-01-12T00:52:06.106Z,10.82
2023-01-12T00:54:08.469Z,11.75
2023-01-12T00:56:10.011Z,15.88
2023-01-12T00:58:11.561Z,16.90
2023-01-12T01:00:13.610Z,12.73
2023-01-12T01:02:15.270Z,21.55
2023-01-12T01:04:17.044Z,13.20
2023-01-12T01:06:18.597Z,11.18
2023-01-12T01:08:20.100Z,12.27
2023-01-12T01:10:21.730Z,11.55
2023-01-12T01:12:23.233Z,12.20
2023-01-12T01:14:25.404Z,12.88
2023-01-12T01:16:27.134Z,11.93
2023-01-12T01:18:29.001Z,12.52
2023-01-12T01:20:34.525Z,13.18
2023-01-12T01:22:36.087Z,13.02
2023-01-12T01:24:37.590Z,12.18
2023-01-12T01:26:40.120Z,12.90
2023-01-12T01:28:42.411Z,14.68
2023-01-12T01:30:45.455Z,17.00
2023-01-12T01:32:46.952Z,16.50
2023-01-12T01:34:48.541Z,16.20
2023-01-12T01:36:50.058Z,17.38
2023-01-12T01:38:51.791Z,17.40
2023-01-12T01:40:54.070Z,48.83
2023-01-12T01:42:55.562Z,17.00
2023-01-12T01:45:06.835Z,17.95
2023-01-12T01:47:15.579Z,16.48
2023-01-12T01:49:39.438Z,18.70
2023-01-12T01:51:42.066Z,19.15
2023-01-12T01:53:46.980Z,20.95
2023-01-12T01:55:51.167Z,21.00
2023-01-12T01:57:58.777Z,20.85
2023-01-12T02:00:01.177Z,20.17
2023-01-12T02:02:03.500Z,19.75
2023-01-12T02:04:06.208Z,20.05
2023-01-12T02:06:09.120Z,22.40
2023-01-12T02:08:19.853Z,21.55
2023-01-12T02:10:21.565Z,22.08
2023-01-12T02:12:41.778Z,18.60
2023-01-12T02:15:05.439Z,19.65
2023-01-12T02:17:22.162Z,20.00
2023-01-12T02:19:56.664Z,21.05
2023-01-12T02:22:40.051Z,22.75
2023-01-12T02:25:18.961Z,23.08
2023-01-12T02:28:12.689Z,24.63
2023-01-12T02:30:22.519Z,23.25
2023-01-12T02:32:42.655Z,23.23
2023-01-12T02:34:53.341Z,23.10
2023-01-12T02:37:05.493Z,24.10
2023-01-12T02:39:15.420Z,24.73
2023-01-12T02:41:56.354Z,24.20
2023-01-12T02:43:58.083Z,23.73
2023-01-12T02:46:23.269Z,26.60
2023-01-12T02:49:00.015Z,24.45
2023-01-12T02:51:05.804Z,24.08
2023-01-12T02:53:14.544Z,23.33
2023-01-12T02:55:18.045Z,17.02
2023-01-12T02:57:22.893Z,22.48
2023-01-12T02:59:27.504Z,23.98
2023-01-12T03:01:29.764Z,21.38
2023-01-12T03:03:31.832Z,22.35
2023-01-12T03:05:33.428Z,22.65
2023-01-12T03:07:38.422Z,22.65
2023-01-12T03:09:48.040Z,22.38
2023-01-12T03:11:53.602Z,22.92
2023-01-12T03:14:00.045Z,23.25
2023-01-12T03:16:04.398Z,22.88
2023-01-12T03:18:14.918Z,24.73
2023-01-12T03:20:24.646Z,23.17
2023-01-12T03:24:44.935Z,21.98
2023-01-12T03:26:51.502Z,22.93
2023-01-12T03:28:59.322Z,20.80
2023-01-12T03:31:11.291Z,23.73
2023-01-12T03:33:13.626Z,24.30
2023-01-12T03:35:15.785Z,26.63
2023-01-12T03:37:29.218Z,25.25
2023-01-12T03:40:00.341Z,25.48
2023-01-12T03:42:15.292Z,25.75
2023-01-12T03:44:24.733Z,25.48
2023-01-12T03:46:32.135Z,25.63
2023-01-12T03:48:57.852Z,26.90
2023-01-12T03:51:02.556Z,24.58
2023-01-12T03:53:06.763Z,25.02
2023-01-12T03:55:12.190Z,22.92
2023-01-12T03:57:15.366Z,21.02
2023-01-12T03:59:17.007Z,21.83
2023-01-12T04:01:18.890Z,24.05
2023-01-12T04:03:20.697Z,23.48
2023-01-12T04:05:22.209Z,22.08
2023-01-12T04:07:23.757Z,21.45
2023-01-12T04:09:25.943Z,22.85
2023-01-12T04:11:46.249Z,24.00
2023-01-12T04:13:47.761Z,22.38
2023-01-12T04:15:49.320Z,23.52
2023-01-12T04:17:51.033Z,22.90
2023-01-12T04:19:52.647Z,24.20
2023-01-12T04:22:12.472Z,25.42
2023-01-12T04:26:17.465Z,23.20
2023-01-12T04:28:19.051Z,25.88
2023-01-12T04:30:23.611Z,26.15
2023-01-12T04:32:25.232Z,25.02
2023-01-12T04:34:26.758Z,24.13
2023-01-12T04:36:28.253Z,24.17
2023-01-12T04:38:29.794Z,25.00
2023-01-12T04:40:31.339Z,23.60
2023-01-12T04:42:51.538Z,25.20
2023-01-12T04:44:53.044Z,24.75
2023-01-12T04:46:54.577Z,26.65
2023-01-12T04:48:56.103Z,28.80
2023-01-12T04:50:59.381Z,27.95
2023-01-12T04:53:05.718Z,26.60
2023-01-12T04:55:07.780Z,29.00
2023-01-12T04:57:09.302Z,27.85
2023-01-12T04:59:10.871Z,28.80
2023-01-12T05:01:15.603Z,28.55
2023-01-12T05:03:17.839Z,26.38
2023-01-12T05:05:19.353Z,25.35
2023-01-12T05:07:20.917Z,27.27
2023-01-12T05:09:41.013Z,25.90
2023-01-12T05:11:42.593Z,25.10
2023-01-12T05:13:44.512Z,25.85
2023-01-12T05:15:46.070Z,25.92
2023-01-12T05:17:47.730Z,25.30
2023-01-12T05:19:49.790Z,25.25
2023-01-12T05:21:51.299Z,31.40
2023-01-12T05:23:53.439Z,28.73
2023-01-12T05:25:59.063Z,27.65
2023-01-12T05:28:01.013Z,27.27
2023-01-12T05:30:02.635Z,24.48
2023-01-12T05:32:04.395Z,25.90
2023-01-12T05:34:05.924Z,25.08
2023-01-12T05:36:09.668Z,24.77
2023-01-12T05:38:11.721Z,23.45
2023-01-12T05:40:13.476Z,23.90
2023-01-12T05:42:33.416Z,24.70
2023-01-12T05:44:34.934Z,23.13
2023-01-12T05:46:40.227Z,23.30
2023-01-12T05:48:41.932Z,23.13
2023-01-12T05:50:43.597Z,25.60
2023-01-12T05:52:45.169Z,35.38
2023-01-12T05:54:46.723Z,28.52
2023-01-12T05:56:49.851Z,27.38
2023-01-12T05:58:56.637Z,26.27
2023-01-12T06:00:58.219Z,27.05
2023-01-12T06:02:59.764Z,25.98
2023-01-12T06:05:01.378Z,27.15
2023-01-12T06:07:02.880Z,27.60
2023-01-12T06:09:04.996Z,28.63
2023-01-12T06:11:06.545Z,28.02
2023-01-12T06:13:28.025Z,31.63
2023-01-12T06:15:29.552Z,32.42
2023-01-12T06:17:31.030Z,30.08
2023-01-12T06:19:32.674Z,27.35
2023-01-12T06:21:34.458Z,32.15
2023-01-12T06:23:36.070Z,30.15
2023-01-12T06:25:37.628Z,32.08
2023-01-12T06:27:39.736Z,36.20
2023-01-12T06:29:41.307Z,32.47
2023-01-12T06:31:43.976Z,41.03
2023-01-12T06:33:45.565Z,37.78
2023-01-12T06:35:50.419Z,42.30
2023-01-12T06:37:56.289Z,45.88
2023-01-12T06:39:58.034Z,47.55
2023-01-12T06:42:18.276Z,53.60
2023-01-12T06:44:19.801Z,47.83
2023-01-12T06:46:21.385Z,48.90
2023-01-12T06:48:25.968Z,53.08
2023-01-12T06:50:27.515Z,64.35
2023-01-12T06:52:30.216Z,57.10
2023-01-12T06:54:31.820Z,52.47
2023-01-12T06:56:33.428Z,49.53
2023-01-12T06:58:34.990Z,51.28
2023-01-12T07:00:36.567Z,51.40
2023-01-12T07:02:38.094Z,56.95
2023-01-12T07:04:40.413Z,57.45
2023-01-12T07:06:42.053Z,58.20
2023-01-12T07:08:43.655Z,59.97
2023-01-12T07:10:46.638Z,58.08
2023-01-12T07:12:48.175Z,53.80
2023-01-12T07:14:49.807Z,50.90
2023-01-12T07:16:51.828Z,51.78
2023-01-12T07:18:53.345Z,49.15
2023-01-12T07:20:54.876Z,47.67
2023-01-12T07:22:56.472Z,47.45
2023-01-12T07:24:58.065Z,45.75
2023-01-12T07:26:59.652Z,44.53
2023-01-12T07:29:01.177Z,41.45
2023-01-12T07:31:05.216Z,41.58
2023-01-12T07:33:08.393Z,44.53
2023-01-12T07:35:10.174Z,42.63
2023-01-12T07:37:11.692Z,43.13
2023-01-12T07:39:14.074Z,42.25
2023-01-12T07:41:34.050Z,43.25
2023-01-12T07:43:35.602Z,49.25
2023-01-12T07:45:37.377Z,63.92
2023-01-12T07:47:39.442Z,73.22
2023-01-12T07:49:42.128Z,59.38
2023-01-12T07:51:43.681Z,52.42
2023-01-12T07:53:46.962Z,59.72
2023-01-12T07:55:48.511Z,56.75
2023-01-12T07:57:58.675Z,51.72
2023-01-12T08:00:00.205Z,46.03
2023-01-12T08:02:01.738Z,43.15
2023-01-12T08:04:03.966Z,46.45
2023-01-12T08:06:06.228Z,40.05
2023-01-12T08:08:08.345Z,45.92
2023-01-12T08:10:11.343Z,50.53
2023-01-12T08:12:12.931Z,44.72
2023-01-12T08:14:28.932Z,39.35
2023-01-12T08:16:37.645Z,41.75
2023-01-12T08:18:46.239Z,27.63
2023-01-12T08:20:48.928Z,37.00
2023-01-12T08:22:53.493Z,35.50
2023-01-12T08:25:16.606Z,34.30
2023-01-12T08:27:22.225Z,32.88
2023-01-12T08:29:31.968Z,32.33
2023-01-12T08:31:33.675Z,25.83
2023-01-12T08:33:38.222Z,57.28
2023-01-12T08:35:39.730Z,63.17
2023-01-12T08:37:41.319Z,35.58
2023-01-12T08:39:43.451Z,30.13
2023-01-12T08:41:45.183Z,30.63
2023-01-12T08:44:07.512Z,28.90
2023-01-12T08:46:09.198Z,21.02
2023-01-12T08:48:10.740Z,25.65
2023-01-12T08:50:12.459Z,21.55
2023-01-12T08:52:16.544Z,17.92
2023-01-12T08:54:20.128Z,16.98
2023-01-12T08:56:22.481Z,15.45
2023-01-12T08:58:24.031Z,14.80
2023-01-12T09:00:25.588Z,13.98
2023-01-12T09:02:27.579Z,14.60
2023-01-12T09:04:29.314Z,19.75
2023-01-12T09:06:42.716Z,21.88
2023-01-12T09:08:54.545Z,22.52
2023-01-12T09:11:12.273Z,21.10
2023-01-12T09:13:16.202Z,21.30
2023-01-12T09:15:17.740Z,18.50
2023-01-12T09:17:19.645Z,18.48
2023-01-12T09:19:21.271Z,16.80
2023-01-12T09:21:25.108Z,15.18
2023-01-12T09:23:40.438Z,14.65
2023-01-12T09:25:51.054Z,16.35
2023-01-12T09:27:53.048Z,17.73
2023-01-12T09:29:54.557Z,17.42
2023-01-12T09:31:56.119Z,18.05
2023-01-12T09:33:58.572Z,19.08
2023-01-12T09:36:01.514Z,18.15
2023-01-12T09:38:11.388Z,16.35
2023-01-12T09:40:18.478Z,14.98
2023-01-12T09:45:41.630Z,20.90
2023-01-12T09:47:58.383Z,24.50
2023-01-12T09:50:21.032Z,21.58
2023-01-12T09:52:27.762Z,23.45
2023-01-12T09:54:29.281Z,19.60
2023-01-12T09:56:59.307Z,17.80
2023-01-12T09:59:41.169Z,17.58
2023-01-12T10:01:43.249Z,17.80
2023-01-12T10:03:44.952Z,19.15
2023-01-12T10:05:52.605Z,17.27
2023-01-12T10:07:55.923Z,19.08
2023-01-12T10:09:58.460Z,17.73
2023-01-12T10:12:16.614Z,19.10
2023-01-12T10:14:33.422Z,17.70
2023-01-12T10:16:51.349Z,18.92
2023-01-12T10:18:58.694Z,16.92
2023-01-12T10:21:03.179Z,14.57
2023-01-12T10:23:17.289Z,15.10
2023-01-12T10:25:45.974Z,16.02
2023-01-12T10:27:53.279Z,16.33
2023-01-12T10:30:03.030Z,12.85
2023-01-12T10:32:04.922Z,13.45
2023-01-12T10:34:08.872Z,12.27
2023-01-12T10:36:18.049Z,13.35
2023-01-12T10:38:32.534Z,13.05
2023-01-12T10:40:35.027Z,13.02
2023-01-12T10:42:55.771Z,12.80
2023-01-12T10:45:16.444Z,14.45
2023-01-12T10:47:19.473Z,12.52
2023-01-12T10:49:23.155Z,14.15
2023-01-12T10:51:30.241Z,13.18
2023-01-12T10:53:48.461Z,13.00
2023-01-12T10:55:50.701Z,13.85
2023-01-12T10:57:52.946Z,13.30
2023-01-12T11:00:02.880Z,13.75
2023-01-12T11:04:20.241Z,12.68
2023-01-12T11:06:23.553Z,11.98
2023-01-12T11:08:29.565Z,12.75
2023-01-12T11:10:38.741Z,14.52
2023-01-12T11:12:41.239Z,13.05
2023-01-12T11:14:43.077Z,13.98
2023-01-12T11:16:53.701Z,14.20
2023-01-12T11:19:07.276Z,13.98
2023-01-12T11:21:12.581Z,14.98
2023-01-12T11:23:39.188Z,17.13
2023-01-12T11:25:44.994Z,14.80
2023-01-12T11:28:04.394Z,14.20
2023-01-12T11:30:41.509Z,13.70
2023-01-12T11:32:49.734Z,12.70
2023-01-12T11:35:04.930Z,13.45
2023-01-12T11:37:14.246Z,13.30
2023-01-12T11:39:22.969Z,12.70
2023-01-12T11:41:36.536Z,14.57
2023-01-12T11:44:01.027Z,11.93
2023-01-12T11:46:08.739Z,14.35
2023-01-12T11:48:22.845Z,12.40
2023-01-12T11:50:30.683Z,14.38
2023-01-12T11:52:32.979Z,14.70
2023-01-12T11:54:38.308Z,22.30
2023-01-12T11:57:00.344Z,25.17
2023-01-12T11:59:23.170Z,18.45
2023-01-12T12:01:36.784Z,18.45
2023-01-12T12:04:04.450Z,13.40
2023-01-12T12:06:18.176Z,14.57
2023-01-12T12:08:51.964Z,24.00
2023-01-12T12:10:59.029Z,18.92
2023-01-12T12:13:22.798Z,16.85
2023-01-12T12:16:01.326Z,22.38
2023-01-12T12:18:17.831Z,18.48
2023-01-12T12:20:37.741Z,13.27
2023-01-12T12:25:24.556Z,9.70
2023-01-12T12:27:36.690Z,11.85
2023-01-12T12:29:55.313Z,11.02
2023-01-12T12:32:14.880Z,10.20
2023-01-12T12:34:52.107Z,12.40
2023-01-12T12:36:53.623Z,13.70
2023-01-12T12:39:01.017Z,10.95
2023-01-12T12:41:57.412Z,12.45
2023-01-12T12:44:38.055Z,11.52
2023-01-12T12:46:58.742Z,11.25
2023-01-12T12:49:07.538Z,13.77
2023-01-12T12:51:10.020Z,10.18
2023-01-12T12:53:14.055Z,17.23
2023-01-12T12:55:19.269Z,10.88
2023-01-12T12:57:20.905Z,9.15
2023-01-12T12:59:31.817Z,9.80
2023-01-12T13:01:33.394Z,9.25
2023-01-12T13:03:41.148Z,9.90
2023-01-12T13:05:47.945Z,9.77
2023-01-12T13:07:52.807Z,8.20
2023-01-12T13:10:20.728Z,10.95
2023-01-12T13:12:34.107Z,9.10
2023-01-12T13:14:36.961Z,9.70
2023-01-12T13:16:57.523Z,10.40
2023-01-12T13:18:59.620Z,9.10
2023-01-12T13:21:01.239Z,10.13
2023-01-12T13:23:02.783Z,10.93
2023-01-12T13:25:24.322Z,10.38
2023-01-12T13:28:00.987Z,8.82
2023-01-12T13:30:28.632Z,9.05
2023-01-12T13:32:42.024Z,8.52
2023-01-12T13:34:47.236Z,9.70
2023-01-12T13:37:19.587Z,8.95
2023-01-12T13:39:21.201Z,12.07
2023-01-12T13:41:52.609Z,9.40
2023-01-12T13:43:57.211Z,7.05
2023-01-12T13:46:10.987Z,8.27
2023-01-12T13:48:19.079Z,8.55
2023-01-12T13:50:28.601Z,10.02
2023-01-12T13:52:36.126Z,16.38
2023-01-12T13:54:49.769Z,17.50
2023-01-12T13:57:03.470Z,16.90
2023-01-12T13:59:07.890Z,18.77
2023-01-12T14:01:28.467Z,14.20
2023-01-12T14:03:36.464Z,14.38
2023-01-12T14:05:59.292Z,8.75
2023-01-12T14:08:08.315Z,9.32
2023-01-12T14:10:33.385Z,9.48
2023-01-12T14:12:53.924Z,9.18
2023-01-12T14:15:29.496Z,9.80
2023-01-12T14:17:49.904Z,9.70
2023-01-12T14:19:51.569Z,9.85
2023-01-12T14:22:06.487Z,9.48
2023-01-12T14:24:24.890Z,8.85
2023-01-12T14:26:35.645Z,9.88
2023-01-12T14:28:39.318Z,12.65
2023-01-12T14:30:47.065Z,11.57
2023-01-12T14:32:50.202Z,11.55
2023-01-12T14:34:55.324Z,11.52
2023-01-12T14:36:57.047Z,13.05
2023-01-12T14:39:07.991Z,13.63
2023-01-12T14:41:40.771Z,11.73
2023-01-12T14:44:01.777Z,24.02
2023-01-12T14:46:22.775Z,19.13
2023-01-12T14:48:27.522Z,22.02
2023-01-12T14:50:29.034Z,21.77
2023-01-12T14:52:32.459Z,14.45
2023-01-12T14:54:34.520Z,16.70
2023-01-12T14:56:43.245Z,25.30
2023-01-12T14:58:46.585Z,24.88
2023-01-12T15:00:48.218Z,23.88
2023-01-12T15:02:52.884Z,51.13
2023-01-12T15:04:57.126Z,34.15
2023-01-12T15:07:05.259Z,22.33
2023-01-12T15:09:11.036Z,22.10
2023-01-12T15:11:12.620Z,22.77
2023-01-12T15:13:33.352Z,16.67
2023-01-12T15:15:53.767Z,17.92
2023-01-12T15:18:14.321Z,19.83
2023-01-12T15:20:34.689Z,22.25
2023-01-12T15:22:54.540Z,13.00
2023-01-12T15:25:14.310Z,12.25
2023-01-12T15:29:18.492Z,27.95
2023-01-12T15:31:52.571Z,16.98
2023-01-12T15:33:54.545Z,16.45
2023-01-12T15:35:56.106Z,17.10
2023-01-12T15:37:58.956Z,22.20
2023-01-12T15:40:01.404Z,22.70
2023-01-12T15:42:18.475Z,25.95
2023-01-12T15:44:21.691Z,24.45
2023-01-12T15:46:23.209Z,20.33
2023-01-12T15:48:24.747Z,20.52
2023-01-12T15:50:26.617Z,26.13
2023-01-12T15:52:30.675Z,21.92
2023-01-12T15:54:32.293Z,16.90
2023-01-12T15:56:35.329Z,14.32
2023-01-12T15:58:36.926Z,13.38
2023-01-12T16:00:38.744Z,16.02
2023-01-12T16:02:40.262Z,14.75
2023-01-12T16:04:43.815Z,15.95
2023-01-12T16:06:47.163Z,16.25
2023-01-12T16:08:48.661Z,17.52
2023-01-12T16:11:10.418Z,22.60
2023-01-12T16:13:11.979Z,21.42
2023-01-12T16:15:19.744Z,25.30
2023-01-12T16:17:21.345Z,31.98
2023-01-12T16:19:23.663Z,37.80
2023-01-12T16:21:26.732Z,64.68
2023-01-12T16:23:28.668Z,67.72
2023-01-12T16:25:30.197Z,66.95
2023-01-12T16:27:32.443Z,54.13
2023-01-12T16:29:33.984Z,47.45
2023-01-12T16:31:38.826Z,64.47
2023-01-12T16:33:42.342Z,39.67
2023-01-12T16:35:44.772Z,20.88
2023-01-12T16:37:46.271Z,19.45
2023-01-12T16:39:47.879Z,18.77
2023-01-12T16:41:49.380Z,17.00
2023-01-12T16:43:51.240Z,18.05
2023-01-12T16:45:52.905Z,16.23
2023-01-12T16:47:57.820Z,16.00
2023-01-12T16:49:59.911Z,16.65
2023-01-12T16:52:02.167Z,15.55
2023-01-12T16:54:04.793Z,15.77
2023-01-12T16:56:06.831Z,17.17
2023-01-12T16:58:09.652Z,15.82
2023-01-12T17:00:11.744Z,15.07
2023-01-12T17:02:17.634Z,15.90
2023-01-12T17:04:23.277Z,14.57
2023-01-12T17:06:27.295Z,13.98
2023-01-12T17:08:29.499Z,13.82
2023-01-12T17:10:31.134Z,14.52
2023-01-12T17:12:32.699Z,14.13
2023-01-12T17:14:34.860Z,17.00
2023-01-12T17:16:36.869Z,16.85
2023-01-12T17:18:39.604Z,17.33
2023-01-12T17:20:41.408Z,15.10
2023-01-12T17:22:43.791Z,15.63
2023-01-12T17:24:45.610Z,16.00
2023-01-12T17:26:49.726Z,19.27
2023-01-12T17:28:51.311Z,18.55
2023-01-12T17:30:53.056Z,17.60
2023-01-12T17:32:54.671Z,14.20
2023-01-12T17:34:56.175Z,13.30
2023-01-12T17:37:00.082Z,13.55
2023-01-12T17:39:01.927Z,13.38
2023-01-12T17:41:33.484Z,11.15
2023-01-12T17:43:37.229Z,11.88
2023-01-12T17:45:42.929Z,13.52
2023-01-12T17:47:44.482Z,12.32
2023-01-12T17:49:47.889Z,16.63
2023-01-12T17:51:49.521Z,20.75
2023-01-12T17:53:58.202Z,38.25
2023-01-12T17:56:02.651Z,33.20
2023-01-12T17:58:05.477Z,29.67
2023-01-12T18:00:09.182Z,29.95
2023-01-12T18:02:11.839Z,47.83
2023-01-12T18:04:14.605Z,29.25
2023-01-12T18:06:25.976Z,48.42
2023-01-12T18:08:27.958Z,52.65
2023-01-12T18:10:29.511Z,27.30
2023-01-12T18:12:31.680Z,30.23
2023-01-12T18:14:33.606Z,27.08
2023-01-12T18:16:35.579Z,19.67
2023-01-12T18:18:38.762Z,32.58
2023-01-12T18:20:40.287Z,57.25
2023-01-12T18:22:41.827Z,21.27
2023-01-12T18:24:43.367Z,47.95
2023-01-12T18:26:44.894Z,16.15
2023-01-12T18:28:46.575Z,25.58
2023-01-12T18:30:48.147Z,12.43
2023-01-12T18:32:49.657Z,12.60
2023-01-12T18:34:51.332Z,19.17
2023-01-12T18:36:52.919Z,14.63
2023-01-12T18:38:55.287Z,11.48
2023-01-12T18:41:20.022Z,10.85
2023-01-12T18:43:21.539Z,9.07
2023-01-12T18:45:24.578Z,10.30
2023-01-12T18:47:44.382Z,11.73
2023-01-12T18:52:08.044Z,8.95
2023-01-12T18:54:12.383Z,9.05
2023-01-12T18:56:14.531Z,10.18
2023-01-12T18:58:16.110Z,9.25
2023-01-12T19:00:18.215Z,8.45
2023-01-12T19:02:20.557Z,8.98
2023-01-12T19:04:35.582Z,9.02
2023-01-12T19:06:47.473Z,9.45
2023-01-12T19:09:08.936Z,10.85
2023-01-12T19:11:12.204Z,12.13
2023-01-12T19:13:32.278Z,11.95
2023-01-12T19:15:52.292Z,12.40
2023-01-12T19:17:53.998Z,12.40
2023-01-12T19:20:03.223Z,11.80
2023-01-12T19:22:23.318Z,11.38
2023-01-12T19:24:43.280Z,10.73
2023-01-12T19:27:03.488Z,10.23
2023-01-12T19:29:04.981Z,10.05
2023-01-12T19:31:10.105Z,10.73
2023-01-12T19:33:15.598Z,8.75
2023-01-12T19:35:17.357Z,10.00
2023-01-12T19:37:18.891Z,10.10
2023-01-12T19:39:28.848Z,9.77
2023-01-12T19:41:48.989Z,9.95
2023-01-12T19:43:50.561Z,11.18
2023-01-12T19:45:59.203Z,11.75
2023-01-12T19:48:01.470Z,8.25
2023-01-12T19:50:07.678Z,7.80
2023-01-12T19:52:09.229Z,9.52
2023-01-12T19:54:10.774Z,9.45
2023-01-12T19:56:13.131Z,8.05
2023-01-12T19:58:14.908Z,8.65
2023-01-12T20:00:17.634Z,8.90
2023-01-12T20:02:19.398Z,8.65
2023-01-12T20:04:21.115Z,7.68
2023-01-12T20:06:22.756Z,8.82
2023-01-12T20:08:25.546Z,8.82
2023-01-12T20:10:27.290Z,9.02
2023-01-12T20:12:28.935Z,8.23
2023-01-12T20:14:31.517Z,8.27
2023-01-12T20:16:33.670Z,10.10
2023-01-12T20:18:35.569Z,8.48
2023-01-12T20:20:39.436Z,9.18
2023-01-12T20:22:41.168Z,8.93
2023-01-12T20:24:42.812Z,10.05
2023-01-12T20:26:44.499Z,9.82
2023-01-12T20:28:46.145Z,7.70
2023-01-12T20:30:47.684Z,10.73
2023-01-12T20:32:51.696Z,11.48
2023-01-12T20:34:53.229Z,9.52
2023-01-12T20:36:54.955Z,9.75
2023-01-12T20:38:58.249Z,11.23
2023-01-12T20:41:00.812Z,9.15
2023-01-12T20:43:02.622Z,10.35
2023-01-12T20:45:06.016Z,12.07
2023-01-12T20:47:07.598Z,17.40
2023-01-12T20:49:09.835Z,13.77
2023-01-12T20:51:13.903Z,14.75
2023-01-12T20:53:16.497Z,11.70
2023-01-12T20:55:18.544Z,9.50
2023-01-12T20:57:20.896Z,11.15
2023-01-12T20:59:22.427Z,10.38
2023-01-12T21:01:24.130Z,11.52
2023-01-12T21:03:26.011Z,11.02
2023-01-12T21:05:27.594Z,9.60
2023-01-12T21:07:29.166Z,9.63
2023-01-12T21:09:30.725Z,11.48
2023-01-12T21:11:32.408Z,19.55
2023-01-12T21:13:34.692Z,11.38
2023-01-12T21:15:36.614Z,14.02
2023-01-12T21:17:39.161Z,10.32
2023-01-12T21:19:40.808Z,11.90
2023-01-12T21:21:42.330Z,9.73
2023-01-12T21:23:44.026Z,9.00
2023-01-12T21:25:45.635Z,9.90
2023-01-12T21:27:47.257Z,8.43
2023-01-12T21:29:49.273Z,9.68
2023-01-12T21:31:51.004Z,9.73
2023-01-12T21:33:52.667Z,10.07
2023-01-12T21:35:58.503Z,10.43
2023-01-12T21:38:00.133Z,10.60
2023-01-12T21:40:01.693Z,10.65
2023-01-12T21:42:22.307Z,11.57
2023-01-12T21:44:23.816Z,10.18
2023-01-12T21:46:25.920Z,11.23
2023-01-12T21:48:27.456Z,9.98
2023-01-12T21:50:29.019Z,10.27
2023-01-12T21:52:33.064Z,10.80
2023-01-12T21:54:34.627Z,10.60
2023-01-12T21:56:36.468Z,9.77
2023-01-12T21:58:38.296Z,10.82
2023-01-12T22:00:39.795Z,11.07
2023-01-12T22:02:41.892Z,10.20
2023-01-12T22:04:43.507Z,10.35
2023-01-12T22:06:44.991Z,10.70
2023-01-12T22:08:46.493Z,11.27
2023-01-12T22:10:48.062Z,10.68
2023-01-12T22:12:57.541Z,10.32
2023-01-12T22:14:59.104Z,9.65
2023-01-12T22:17:00.742Z,12.07
2023-01-12T22:19:03.790Z,9.60
2023-01-12T22:21:09.626Z,11.43
2023-01-12T22:23:13.079Z,9.85
2023-01-12T22:25:15.697Z,11.07
2023-01-12T22:27:17.222Z,10.68
2023-01-12T22:29:18.747Z,10.57
2023-01-12T22:31:22.819Z,10.55
2023-01-12T22:33:24.461Z,10.93
2023-01-12T22:35:26.457Z,11.65
2023-01-12T22:37:29.098Z,9.88
2023-01-12T22:39:30.676Z,10.55
2023-01-12T22:41:32.231Z,10.68
2023-01-12T22:43:40.468Z,10.32
2023-01-12T22:45:42.096Z,11.95
2023-01-12T22:47:48.350Z,11.10
2023-01-12T22:49:50.206Z,11.50
2023-01-12T22:51:51.754Z,10.98
2023-01-12T22:53:54.444Z,11.65
2023-01-12T22:56:00.319Z,10.23
2023-01-12T22:58:01.866Z,11.57
2023-01-12T23:00:04.944Z,11.30
2023-01-12T23:02:26.585Z,11.05
2023-01-12T23:04:28.122Z,10.23
2023-01-12T23:06:29.725Z,9.90
2023-01-12T23:08:31.294Z,10.18
2023-01-12T23:10:33.263Z,9.88
2023-01-12T23:12:34.868Z,10.73
2023-01-12T23:14:36.457Z,9.77
2023-01-12T23:16:37.992Z,9.82
2023-01-12T23:18:41.272Z,10.73
2023-01-12T23:20:43.413Z,10.40
2023-01-12T23:22:44.958Z,10.93
2023-01-12T23:24:46.484Z,11.00
2023-01-12T23:26:48.012Z,10.70
2023-01-12T23:28:52.761Z,11.27
2023-01-12T23:30:54.298Z,10.82
2023-01-12T23:32:59.587Z,12.02
2023-01-12T23:35:02.128Z,10.98
2023-01-12T23:37:03.688Z,11.57
2023-01-12T23:39:07.179Z,11.55
2023-01-12T23:41:18.181Z,11.88
2023-01-12T23:43:20.929Z,10.40
2023-01-12T23:45:23.934Z,11.98
2023-01-12T23:47:25.859Z,10.20
2023-01-12T23:49:27.374Z,11.20
2023-01-12T23:51:29.907Z,10.05
2023-01-12T23:53:31.926Z,10.27
2023-01-12T23:55:33.597Z,10.00
2023-01-12T23:57:35.523Z,10.52
2023-01-12T23:59:37.095Z,9.60
